createdAt,value
2018-01-30T00:01:45.151Z,100280
2018-01-30T00:04:13.476Z,100281
2018-01-30T00:06:41.709Z,100290
2018-01-30T00:09:10.023Z,100283
2018-01-30T00:11:39.082Z,100286
2018-01-30T00:14:07.390Z,100279
2018-01-30T00:16:35.679Z,100293
2018-01-30T00:19:04.709Z,100289
2018-01-30T00:21:32.992Z,100300
2018-01-30T00:24:01.301Z,100310
2018-01-30T00:26:29.545Z,100318
2018-01-30T00:28:57.816Z,100333
2018-01-30T00:31:26.884Z,100361
2018-01-30T00:33:55.908Z,100402
2018-01-30T00:36:24.210Z,100414
2018-01-30T00:38:52.454Z,100441
2018-01-30T00:41:20.695Z,100437
2018-01-30T00:43:49.747Z,100443
2018-01-30T00:46:18.019Z,100448
2018-01-30T00:48:46.279Z,100461
2018-01-30T00:51:14.574Z,100476
2018-01-30T00:53:42.821Z,100473
2018-01-30T00:56:11.055Z,100488
2018-01-30T00:58:39.354Z,100487
2018-01-30T01:01:08.354Z,100490
2018-01-30T01:03:36.601Z,100499
2018-01-30T01:06:05.021Z,100499
2018-01-30T01:08:33.290Z,100505
2018-01-30T01:11:01.524Z,100508
2018-01-30T01:13:29.788Z,100498
2018-01-30T01:15:58.077Z,100513
2018-01-30T01:18:26.360Z,100523
2018-01-30T01:20:54.636Z,100526
2018-01-30T01:23:22.958Z,100530
2018-01-30T01:25:51.777Z,100529
2018-01-30T01:28:20.086Z,100527
2018-01-30T01:30:49.152Z,100543
2018-01-30T01:33:17.476Z,100538
2018-01-30T01:35:45.759Z,100552
2018-01-30T01:38:14.011Z,100559
2018-01-30T01:40:43.062Z,100573
2018-01-30T01:43:11.335Z,100574
2018-01-30T01:45:39.640Z,100569
2018-01-30T01:48:07.919Z,100577
2018-01-30T01:50:36.145Z,100594
2018-01-30T01:53:04.469Z,100605
2018-01-30T01:55:33.561Z,100602
2018-01-30T01:58:02.589Z,100615
2018-01-30T02:00:30.941Z,100618
2018-01-30T02:02:59.952Z,100621
2018-01-30T02:05:28.998Z,100620
2018-01-30T02:07:58.116Z,100617
2018-01-30T02:10:26.442Z,100629
2018-01-30T02:12:54.695Z,100629
2018-01-30T02:15:23.752Z,100630
2018-01-30T02:17:52.022Z,100626
2018-01-30T02:20:20.374Z,100624
2018-01-30T02:22:48.704Z,100625
2018-01-30T02:25:16.975Z,100640
2018-01-30T02:27:46.075Z,100657
2018-01-30T02:30:14.395Z,100670
2018-01-30T02:32:42.688Z,100665
2018-01-30T02:35:10.953Z,100670
2018-01-30T02:37:39.264Z,100668
2018-01-30T02:40:07.547Z,100671
2018-01-30T02:42:35.886Z,100673
2018-01-30T02:45:04.180Z,100672
2018-01-30T02:47:32.458Z,100672
2018-01-30T02:50:00.822Z,100674
2018-01-30T02:52:29.106Z,100684
2018-01-30T02:54:57.384Z,100697
2018-01-30T02:57:25.669Z,100684
2018-01-30T02:59:53.976Z,100688
2018-01-30T03:02:23.000Z,100693
2018-01-30T03:04:51.317Z,100701
2018-01-30T03:07:19.564Z,100702
2018-01-30T03:09:47.824Z,100715
2018-01-30T03:12:16.181Z,100707
2018-01-30T03:14:44.422Z,100709
2018-01-30T03:17:12.763Z,100720
2018-01-30T03:19:41.023Z,100722
2018-01-30T03:22:09.404Z,100728
2018-01-30T03:24:37.810Z,100722
2018-01-30T03:27:06.841Z,100727
2018-01-30T03:29:35.154Z,100727
2018-01-30T03:32:03.456Z,100733
2018-01-30T03:34:31.732Z,100724
2018-01-30T03:37:00.072Z,100726
2018-01-30T03:39:28.313Z,100741
2018-01-30T03:41:56.578Z,100753
2018-01-30T03:44:24.843Z,100740
2018-01-30T03:46:53.094Z,100764
2018-01-30T03:49:21.401Z,100764
2018-01-30T03:51:49.677Z,100761
2018-01-30T03:54:17.924Z,100781
2018-01-30T03:56:46.230Z,100771
2018-01-30T03:59:14.525Z,100771
2018-01-30T04:01:42.843Z,100771
2018-01-30T04:04:11.133Z,100776
2018-01-30T04:06:39.430Z,100791
2018-01-30T04:09:07.726Z,100796
2018-01-30T04:11:36.093Z,100794
2018-01-30T04:14:04.352Z,100812
2018-01-30T04:16:32.626Z,100806
2018-01-30T04:19:00.958Z,100796
2018-01-30T04:21:29.269Z,100798
2018-01-30T04:23:57.546Z,100791
2018-01-30T04:26:25.793Z,100805
2018-01-30T04:28:54.166Z,100810
2018-01-30T04:31:22.462Z,100801
2018-01-30T04:33:51.008Z,100809
2018-01-30T04:36:20.947Z,100813
2018-01-30T04:38:49.235Z,100821
2018-01-30T04:41:17.523Z,100833
2018-01-30T04:43:45.809Z,100828
2018-01-30T04:46:14.125Z,100837
2018-01-30T04:48:42.430Z,100856
2018-01-30T04:51:10.724Z,100837
2018-01-30T04:53:39.083Z,100853
2018-01-30T04:56:07.338Z,100864
2018-01-30T04:58:36.350Z,100863
2018-01-30T05:01:04.694Z,100872
2018-01-30T05:03:32.937Z,100873
2018-01-30T05:06:01.179Z,100873
2018-01-30T05:08:29.478Z,100888
2018-01-30T05:10:57.750Z,100887
2018-01-30T05:13:26.017Z,100885
2018-01-30T05:15:54.296Z,100885
2018-01-30T05:18:22.769Z,100870
2018-01-30T05:20:51.073Z,100882
2018-01-30T05:23:19.338Z,100872
2018-01-30T05:25:47.705Z,100882
2018-01-30T05:28:15.969Z,100894
2018-01-30T05:30:44.220Z,100902
2018-01-30T05:33:13.307Z,100910
2018-01-30T05:35:41.550Z,100912
2018-01-30T05:38:09.776Z,100917
2018-01-30T05:40:38.078Z,100908
2018-01-30T05:43:06.359Z,100911
2018-01-30T05:45:35.424Z,100927
2018-01-30T05:48:04.550Z,100928
2018-01-30T05:50:33.648Z,100928
2018-01-30T05:53:01.984Z,100926
2018-01-30T05:55:30.293Z,100937
2018-01-30T05:57:58.627Z,100940
2018-01-30T06:00:27.823Z,100931
2018-01-30T06:02:56.124Z,100937
2018-01-30T06:05:24.413Z,100941
2018-01-30T06:07:52.764Z,100935
2018-01-30T06:10:21.926Z,100938
2018-01-30T06:12:50.222Z,100940
2018-01-30T06:15:18.469Z,100944
2018-01-30T06:17:46.765Z,100944
2018-01-30T06:20:15.109Z,100948
2018-01-30T06:22:43.370Z,100944
2018-01-30T06:25:11.647Z,100950
2018-01-30T06:27:39.979Z,100963
2018-01-30T06:30:08.294Z,100957
2018-01-30T06:32:36.721Z,100968
2018-01-30T06:35:04.999Z,100969
2018-01-30T06:37:33.336Z,100975
2018-01-30T06:40:01.632Z,100969
2018-01-30T06:42:29.908Z,100980
2018-01-30T06:44:58.629Z,100984
2018-01-30T06:47:27.664Z,100980
2018-01-30T06:49:55.923Z,100984
2018-01-30T06:52:24.202Z,101003
2018-01-30T06:54:52.482Z,101011
2018-01-30T06:57:20.782Z,101024
2018-01-30T06:59:49.034Z,101016
2018-01-30T07:02:17.303Z,101025
2018-01-30T07:04:45.605Z,101015
2018-01-30T07:07:13.974Z,101021
2018-01-30T07:09:42.299Z,101031
2018-01-30T07:12:10.627Z,101032
2018-01-30T07:14:38.944Z,101030
2018-01-30T07:17:07.198Z,101043
2018-01-30T07:19:35.541Z,101024
2018-01-30T07:22:03.813Z,101025
2018-01-30T07:24:32.093Z,101043
2018-01-30T07:27:00.389Z,101033
2018-01-30T07:29:28.666Z,101033
2018-01-30T07:31:56.908Z,101062
2018-01-30T07:34:25.907Z,101043
2018-01-30T07:36:56.717Z,101059
2018-01-30T07:39:25.044Z,101050
2018-01-30T07:41:54.062Z,101060
2018-01-30T07:44:22.384Z,101069
2018-01-30T07:46:51.418Z,101082
2018-01-30T07:49:19.750Z,101082
2018-01-30T07:51:48.769Z,101082
2018-01-30T07:54:17.045Z,101085
2018-01-30T07:56:45.317Z,101087
2018-01-30T07:59:13.552Z,101096
2018-01-30T08:01:41.834Z,101102
2018-01-30T08:04:10.123Z,101103
2018-01-30T08:06:38.425Z,101095
2018-01-30T08:09:06.682Z,101099
2018-01-30T08:11:35.718Z,101106
2018-01-30T08:14:03.976Z,101096
2018-01-30T08:16:32.247Z,101107
2018-01-30T08:19:00.510Z,101119
2018-01-30T08:21:28.782Z,101116
2018-01-30T08:23:57.062Z,101124
2018-01-30T08:26:25.307Z,101125
2018-01-30T08:28:53.552Z,101136
2018-01-30T08:31:21.881Z,101145
2018-01-30T08:33:50.179Z,101148
2018-01-30T08:36:18.406Z,101153
2018-01-30T08:38:46.699Z,101166
2018-01-30T08:41:15.004Z,101158
2018-01-30T08:43:43.281Z,101155
2018-01-30T08:46:11.509Z,101165
2018-01-30T08:48:39.834Z,101157
2018-01-30T08:51:08.158Z,101158
2018-01-30T08:53:36.409Z,101165
2018-01-30T08:56:04.654Z,101178
2018-01-30T08:58:32.965Z,101160
2018-01-30T09:01:01.194Z,101172
2018-01-30T09:03:30.285Z,101166
2018-01-30T09:05:59.388Z,101169
2018-01-30T09:08:27.707Z,101177
2018-01-30T09:10:55.973Z,101180
2018-01-30T09:13:24.319Z,101169
2018-01-30T09:15:52.563Z,101195
2018-01-30T09:18:20.844Z,101189
2018-01-30T09:20:49.137Z,101194
2018-01-30T09:23:18.172Z,101198
2018-01-30T09:25:46.429Z,101190
2018-01-30T09:28:14.679Z,101194
2018-01-30T09:30:43.709Z,101206
2018-01-30T09:33:11.974Z,101206
2018-01-30T09:35:40.204Z,101201
2018-01-30T09:38:08.471Z,101213
2018-01-30T09:40:37.503Z,101211
2018-01-30T09:43:06.513Z,101222
2018-01-30T09:45:34.790Z,101231
2018-01-30T09:48:03.011Z,101224
2018-01-30T09:50:31.269Z,101218
2018-01-30T09:52:59.530Z,101219
2018-01-30T09:55:27.802Z,101217
2018-01-30T09:57:56.085Z,101220
2018-01-30T10:00:24.326Z,101227
2018-01-30T10:02:52.614Z,101218
2018-01-30T10:05:20.920Z,101205
2018-01-30T10:07:49.170Z,101211
2018-01-30T10:10:17.596Z,101212
2018-01-30T10:12:45.841Z,101203
2018-01-30T10:15:14.086Z,101197
2018-01-30T10:17:42.471Z,101192
2018-01-30T10:20:10.757Z,101192
2018-01-30T10:22:38.973Z,101199
2018-01-30T10:25:07.419Z,101193
2018-01-30T10:27:35.632Z,101190
2018-01-30T10:30:03.865Z,101203
2018-01-30T10:32:32.163Z,101196
2018-01-30T10:35:00.390Z,101205
2018-01-30T10:37:28.606Z,101211
2018-01-30T10:39:56.877Z,101206
2018-01-30T10:42:25.136Z,101200
2018-01-30T10:44:53.440Z,101215
2018-01-30T10:47:21.665Z,101205
2018-01-30T10:49:49.908Z,101219
2018-01-30T10:52:18.178Z,101219
2018-01-30T10:54:46.429Z,101225
2018-01-30T10:57:14.673Z,101224
2018-01-30T10:59:42.902Z,101228
2018-01-30T11:02:11.202Z,101210
2018-01-30T11:04:40.217Z,101215
2018-01-30T11:07:08.450Z,101218
2018-01-30T11:09:36.739Z,101221
2018-01-30T11:12:05.742Z,101218
2018-01-30T11:14:34.791Z,101213
2018-01-30T11:17:03.103Z,101206
2018-01-30T11:19:32.119Z,101203
2018-01-30T11:22:00.364Z,101205
2018-01-30T11:24:28.679Z,101191
2018-01-30T11:26:56.888Z,101191
2018-01-30T11:29:25.137Z,101194
2018-01-30T11:31:53.451Z,101200
2018-01-30T11:34:21.681Z,101200
2018-01-30T11:36:49.908Z,101196
2018-01-30T11:39:18.220Z,101193
2018-01-30T11:41:46.481Z,101188
2018-01-30T11:44:16.065Z,101199
2018-01-30T11:46:44.312Z,101191
2018-01-30T11:49:12.554Z,101189
2018-01-30T11:51:40.851Z,101199
2018-01-30T11:54:09.072Z,101198
2018-01-30T11:56:37.314Z,101198
2018-01-30T11:59:05.584Z,101212
2018-01-30T12:01:33.837Z,101203
2018-01-30T12:04:02.099Z,101214
2018-01-30T12:06:30.356Z,101207
2018-01-30T12:08:58.567Z,101202
2018-01-30T12:11:26.813Z,101209
2018-01-30T12:13:55.029Z,101204
2018-01-30T12:16:23.290Z,101203
2018-01-30T12:18:51.548Z,101207
2018-01-30T12:21:20.597Z,101205
2018-01-30T12:23:48.829Z,101211
2018-01-30T12:26:17.054Z,101208
2018-01-30T12:28:45.326Z,101212
2018-01-30T12:31:13.566Z,101193
2018-01-30T12:33:41.869Z,101200
2018-01-30T12:36:10.118Z,101207
2018-01-30T12:38:38.361Z,101212
2018-01-30T12:41:07.706Z,101214
2018-01-30T12:43:36.017Z,101204
2018-01-30T12:46:04.276Z,101222
2018-01-30T12:48:32.535Z,101217
2018-01-30T12:51:01.551Z,101232
2018-01-30T12:53:29.819Z,101242
2018-01-30T12:55:58.066Z,101221
2018-01-30T12:58:26.366Z,101231
2018-01-30T13:00:54.647Z,101220
2018-01-30T13:03:22.945Z,101245
2018-01-30T13:05:51.188Z,101254
2018-01-30T13:08:19.436Z,101248
2018-01-30T13:10:47.721Z,101252
2018-01-30T13:13:16.021Z,101245
2018-01-30T13:15:44.304Z,101260
2018-01-30T13:18:12.719Z,101266
2018-01-30T13:20:41.736Z,101262
2018-01-30T13:23:09.953Z,101256
2018-01-30T13:25:38.226Z,101258
2018-01-30T13:28:06.480Z,101263
2018-01-30T13:30:34.713Z,101262
2018-01-30T13:33:03.808Z,101268
2018-01-30T13:35:32.154Z,101262
2018-01-30T13:38:00.464Z,101265
2018-01-30T13:40:29.460Z,101259
2018-01-30T13:42:58.519Z,101265
2018-01-30T13:45:26.881Z,101267
2018-01-30T13:47:55.089Z,101278
2018-01-30T13:50:23.361Z,101275
2018-01-30T13:52:51.663Z,101263
2018-01-30T13:55:20.653Z,101264
2018-01-30T13:57:49.682Z,101263
2018-01-30T14:00:17.929Z,101257
2018-01-30T14:02:46.250Z,101267
2018-01-30T14:05:14.506Z,101269
2018-01-30T14:07:42.756Z,101260
2018-01-30T14:10:11.077Z,101274
2018-01-30T14:12:39.316Z,101256
2018-01-30T14:15:07.633Z,101263
2018-01-30T14:17:35.937Z,101267
2018-01-30T14:20:04.207Z,101259
2018-01-30T14:22:32.489Z,101259
2018-01-30T14:25:00.763Z,101261
2018-01-30T14:27:29.103Z,101281
2018-01-30T14:29:57.353Z,101270
2018-01-30T14:32:25.602Z,101280
2018-01-30T14:34:53.900Z,101275
2018-01-30T14:37:22.143Z,101290
2018-01-30T14:39:50.410Z,101277
2018-01-30T14:42:18.639Z,101294
2018-01-30T14:44:46.889Z,101283
2018-01-30T14:47:15.233Z,101274
2018-01-30T14:49:43.491Z,101281
2018-01-30T14:52:11.765Z,101281
2018-01-30T14:54:40.140Z,101267
2018-01-30T14:57:08.415Z,101264
2018-01-30T14:59:36.646Z,101270
2018-01-30T15:02:05.001Z,101277
2018-01-30T15:04:33.250Z,101274
2018-01-30T15:07:01.496Z,101273
2018-01-30T15:09:29.795Z,101264
2018-01-30T15:11:58.057Z,101268
2018-01-30T15:14:26.716Z,101263
2018-01-30T15:16:55.062Z,101270
2018-01-30T15:19:24.125Z,101280
2018-01-30T15:21:52.454Z,101281
2018-01-30T15:24:21.491Z,101290
2018-01-30T15:26:49.807Z,101288
2018-01-30T15:29:18.875Z,101282
2018-01-30T15:31:47.108Z,101280
2018-01-30T15:34:15.698Z,101283
2018-01-30T15:36:44.065Z,101284
2018-01-30T15:39:12.348Z,101287
2018-01-30T15:41:40.647Z,101294
2018-01-30T15:44:08.950Z,101302
2018-01-30T15:46:37.272Z,101305
2018-01-30T15:49:05.541Z,101294
2018-01-30T15:51:34.649Z,101304
2018-01-30T15:54:02.898Z,101309
2018-01-30T15:56:31.996Z,101312
2018-01-30T15:59:01.086Z,101306
2018-01-30T16:01:29.372Z,101297
2018-01-30T16:03:57.623Z,101301
2018-01-30T16:06:25.974Z,101304
2018-01-30T16:08:54.303Z,101301
2018-01-30T16:11:23.293Z,101306
2018-01-30T16:13:52.365Z,101299
2018-01-30T16:16:21.439Z,101304
2018-01-30T16:18:49.765Z,101305
2018-01-30T16:21:18.805Z,101302
2018-01-30T16:23:47.112Z,101308
2018-01-30T16:26:16.150Z,101316
2018-01-30T16:28:44.466Z,101315
2018-01-30T16:31:12.733Z,101316
2018-01-30T16:33:40.979Z,101324
2018-01-30T16:36:09.309Z,101319
2018-01-30T16:38:37.584Z,101333
2018-01-30T16:41:05.836Z,101326
2018-01-30T16:43:34.161Z,101328
2018-01-30T16:46:03.300Z,101332
2018-01-30T16:48:31.561Z,101346
2018-01-30T16:50:59.848Z,101338
2018-01-30T16:53:28.263Z,101343
2018-01-30T16:55:57.345Z,101336
2018-01-30T16:58:25.608Z,101346
2018-01-30T17:00:53.883Z,101336
2018-01-30T17:03:22.285Z,101341
2018-01-30T17:05:50.660Z,101342
2018-01-30T17:08:18.908Z,101337
2018-01-30T17:10:47.159Z,101341
2018-01-30T17:13:15.482Z,101338
2018-01-30T17:15:43.729Z,101347
2018-01-30T17:18:12.046Z,101349
2018-01-30T17:20:40.344Z,101333
2018-01-30T17:23:09.380Z,101329
2018-01-30T17:25:37.671Z,101323
2018-01-30T17:28:06.015Z,101316
2018-01-30T17:30:34.259Z,101313
2018-01-30T17:33:03.275Z,101316
2018-01-30T17:35:31.589Z,101326
2018-01-30T17:37:59.838Z,101315
2018-01-30T17:40:28.249Z,101311
2018-01-30T17:42:56.622Z,101317
2018-01-30T17:45:25.006Z,101322
2018-01-30T17:47:53.372Z,101338
2018-01-30T17:50:21.731Z,101344
2018-01-30T17:52:50.099Z,101334
2018-01-30T17:55:18.472Z,101341
2018-01-30T17:57:46.784Z,101334
2018-01-30T18:00:15.035Z,101347
2018-01-30T18:02:43.445Z,101351
2018-01-30T18:05:11.777Z,101355
2018-01-30T18:07:40.016Z,101357
2018-01-30T18:10:08.349Z,101361
2018-01-30T18:12:36.604Z,101363
2018-01-30T18:15:04.896Z,101356
2018-01-30T18:17:33.202Z,101357
2018-01-30T18:20:01.458Z,101355
2018-01-30T18:22:29.780Z,101357
2018-01-30T18:24:58.058Z,101351
2018-01-30T18:27:26.366Z,101355
2018-01-30T18:29:54.598Z,101345
2018-01-30T18:32:22.854Z,101357
2018-01-30T18:34:51.185Z,101357
2018-01-30T18:37:19.425Z,101357
2018-01-30T18:39:47.666Z,101358
2018-01-30T18:42:16.003Z,101350
2018-01-30T18:44:45.015Z,101352
2018-01-30T18:47:13.285Z,101347
2018-01-30T18:49:41.563Z,101338
2018-01-30T18:52:09.804Z,101334
2018-01-30T18:54:38.058Z,101337
2018-01-30T18:57:06.359Z,101349
2018-01-30T18:59:34.800Z,101343
2018-01-30T19:02:03.102Z,101333
2018-01-30T19:04:31.467Z,101330
2018-01-30T19:06:59.848Z,101328
2018-01-30T19:09:28.143Z,101339
2018-01-30T19:11:56.492Z,101330
2018-01-30T19:14:24.755Z,101329
2018-01-30T19:16:52.985Z,101328
2018-01-30T19:19:22.063Z,101326
2018-01-30T19:21:50.593Z,101325
2018-01-30T19:24:19.148Z,101320
2018-01-30T19:26:47.591Z,101320
2018-01-30T19:29:15.824Z,101327
2018-01-30T19:31:44.142Z,101324
2018-01-30T19:34:12.447Z,101331
2018-01-30T19:36:41.458Z,101340
2018-01-30T19:39:09.733Z,101332
2018-01-30T19:41:38.008Z,101327
2018-01-30T19:44:06.298Z,101337
2018-01-30T19:46:34.549Z,101334
2018-01-30T19:49:03.614Z,101337
2018-01-30T19:51:31.866Z,101339
2018-01-30T19:54:00.206Z,101336
2018-01-30T19:56:28.488Z,101338
2018-01-30T19:58:57.479Z,101329
2018-01-30T20:01:25.730Z,101330
2018-01-30T20:03:54.910Z,101323
2018-01-30T20:06:23.183Z,101320
2018-01-30T20:08:51.508Z,101323
2018-01-30T20:11:19.882Z,101323
2018-01-30T20:13:48.201Z,101326
2018-01-30T20:16:16.458Z,101329
2018-01-30T20:18:45.538Z,101328
2018-01-30T20:21:13.885Z,101320
2018-01-30T20:23:42.203Z,101318
2018-01-30T20:26:10.541Z,101317
2018-01-30T20:28:39.608Z,101328
2018-01-30T20:31:07.880Z,101324
2018-01-30T20:33:36.217Z,101323
2018-01-30T20:36:04.506Z,101326
2018-01-30T20:38:32.773Z,101317
2018-01-30T20:41:01.075Z,101324
2018-01-30T20:43:29.465Z,101326
2018-01-30T20:45:57.712Z,101314
2018-01-30T20:48:26.068Z,101323
2018-01-30T20:50:54.355Z,101330
2018-01-30T20:53:22.646Z,101323
2018-01-30T20:55:50.882Z,101324
2018-01-30T20:58:19.967Z,101327
2018-01-30T21:00:49.036Z,101326
2018-01-30T21:03:17.322Z,101336
2018-01-30T21:05:45.665Z,101333
2018-01-30T21:08:13.914Z,101337
2018-01-30T21:10:42.229Z,101329
2018-01-30T21:13:10.941Z,101325
2018-01-30T21:15:40.311Z,101334
2018-01-30T21:18:08.684Z,101326
2018-01-30T21:20:37.100Z,101328
2018-01-30T21:23:05.380Z,101329
2018-01-30T21:25:34.431Z,101319
2018-01-30T21:28:02.721Z,101312
2018-01-30T21:30:30.961Z,101310
2018-01-30T21:32:59.223Z,101316
2018-01-30T21:35:28.344Z,101316
2018-01-30T21:37:56.631Z,101313
2018-01-30T21:40:24.939Z,101295
2018-01-30T21:42:55.022Z,101298
2018-01-30T21:45:23.396Z,101292
2018-01-30T21:47:51.678Z,101289
2018-01-30T21:50:19.989Z,101282
2018-01-30T21:52:48.266Z,101275
2018-01-30T21:55:16.624Z,101269
2018-01-30T21:57:44.940Z,101266
2018-01-30T22:00:13.995Z,101267
2018-01-30T22:02:42.266Z,101273
2018-01-30T22:05:10.554Z,101274
2018-01-30T22:07:38.818Z,101275
2018-01-30T22:10:07.071Z,101271
2018-01-30T22:12:35.713Z,101273
2018-01-30T22:15:03.983Z,101282
2018-01-30T22:17:32.713Z,101274
2018-01-30T22:20:01.024Z,101272
2018-01-30T22:22:29.294Z,101271
2018-01-30T22:24:57.553Z,101264
2018-01-30T22:27:26.057Z,101261
2018-01-30T22:29:54.342Z,101259
2018-01-30T22:32:22.596Z,101253
2018-01-30T22:34:50.995Z,101258
2018-01-30T22:37:19.245Z,101257
2018-01-30T22:39:47.530Z,101250
2018-01-30T22:42:15.931Z,101255
2018-01-30T22:44:45.070Z,101253
